Time;durP1;ratioP1;P1;durP2;ratioP2;P2;SDS_P1;SDS_P2;PMS_P1;PMS_P2;Temp;Humidity;BMP_temperature;BMP_pressure;BME280_temperature;BME280_humidity;BME280_pressure;Samples;Min_cycle;Max_cycle;Signal;HPM_P1;HPM_P2
2023/03/26 00:00:42;;;;;;;39.25;4.68;;;;;;;8.39;100.00;100628.84;5072408;28;20117;-48
2023/03/26 00:03:09;;;;;;;30.67;4.65;;;;;;;8.41;100.00;100631.38;5089382;28;20028;-49
2023/03/26 00:05:34;;;;;;;31.20;3.92;;;;;;;8.44;100.00;100629.19;5084544;28;20029;-51
2023/03/26 00:08:00;;;;;;;31.80;4.78;;;;;;;8.45;100.00;100632.69;5070217;28;20031;-49
2023/03/26 00:10:25;;;;;;;26.40;4.93;;;;;;;8.49;100.00;100632.19;5078089;28;20092;-50
2023/03/26 00:12:51;;;;;;;31.25;4.60;;;;;;;8.52;100.00;100629.16;5069707;28;20035;-49
2023/03/26 00:15:16;;;;;;;29.23;4.70;;;;;;;8.53;100.00;100625.47;5069961;28;20024;-48
2023/03/26 00:17:45;;;;;;;38.25;5.32;;;;;;;8.54;100.00;100613.72;5069992;28;20064;-47
2023/03/26 00:20:11;;;;;;;15.02;4.28;;;;;;;8.54;100.00;100620.94;5068336;28;20034;-49
2023/03/26 00:22:37;;;;;;;35.55;5.35;;;;;;;8.52;100.00;100612.22;5069872;28;20032;-49
2023/03/26 00:25:05;;;;;;;33.17;4.20;;;;;;;8.50;100.00;100603.50;5069589;28;20028;-47
2023/03/26 00:27:31;;;;;;;28.55;4.65;;;;;;;8.54;100.00;100602.16;5068530;28;20032;-47
2023/03/26 00:29:58;;;;;;;38.97;5.20;;;;;;;8.51;100.00;100605.19;5067902;28;20032;-46
2023/03/26 00:32:26;;;;;;;41.47;4.10;;;;;;;8.51;100.00;100602.50;5068322;28;20601;-48
2023/03/26 00:34:54;;;;;;;37.30;3.80;;;;;;;8.49;100.00;100594.63;5066531;28;20052;-48
2023/03/26 00:37:25;;;;;;;42.47;4.93;;;;;;;8.51;100.00;100591.78;5068237;28;20020;-50
2023/03/26 00:39:53;;;;;;;48.25;5.45;;;;;;;8.53;100.00;100589.75;5069848;28;20037;-47
2023/03/26 00:42:19;;;;;;;;;;;;;;;8.53;100.00;100582.56;5069653;28;20115;-47
2023/03/26 00:44:44;;;;;;;57.15;4.45;;;;;;;8.53;100.00;100579.88;5067405;28;20002;-48
2023/03/26 00:47:09;;;;;;;37.75;4.20;;;;;;;8.53;100.00;100582.56;5070155;28;20040;-49
2023/03/26 00:49:35;;;;;;;61.97;4.93;;;;;;;8.52;100.00;100574.66;5066401;28;20060;-49
2023/03/26 00:52:01;;;;;;;55.13;6.10;;;;;;;8.51;100.00;100571.16;5068896;28;20097;-49
2023/03/26 00:54:27;;;;;;;68.43;5.25;;;;;;;8.50;100.00;100569.47;5067638;28;20082;-48
2023/03/26 00:56:54;;;;;;;69.85;6.10;;;;;;;8.50;100.00;100561.41;5072320;28;20051;-48
2023/03/26 00:59:21;;;;;;;74.07;6.75;;;;;;;8.50;100.00;100558.75;5070434;28;20041;-48
2023/03/26 01:01:46;;;;;;;68.88;5.55;;;;;;;8.50;100.00;100557.91;5067826;28;20455;-46
2023/03/26 01:04:26;;;;;;;50.10;4.80;;;;;;;8.49;100.00;100557.09;5069679;28;20052;-48
2023/03/26 01:06:53;;;;;;;76.93;6.90;;;;;;;8.45;100.00;100553.09;5087396;28;20028;-48
2023/03/26 01:09:20;;;;;;;66.68;6.50;;;;;;;8.42;100.00;100553.41;5088559;28;20475;-49
2023/03/26 01:11:46;;;;;;;84.93;6.20;;;;;;;8.34;100.00;100551.56;5088582;28;20050;-48
2023/03/26 01:14:15;;;;;;;63.80;5.20;;;;;;;8.29;100.00;100558.47;5088226;28;20487;-48
2023/03/26 01:16:48;;;;;;;83.18;6.57;;;;;;;8.23;100.00;100554.66;5088487;28;20422;-49
2023/03/26 01:19:23;;;;;;;77.25;6.93;;;;;;;8.18;100.00;100558.88;5071609;28;20458;-48
2023/03/26 01:21:48;;;;;;;88.10;5.93;;;;;;;8.13;100.00;100559.38;5069162;28;20020;-48
2023/03/26 01:24:14;;;;;;;99.80;8.52;;;;;;;8.08;100.00;100559.91;5068931;28;20037;-46
2023/03/26 01:27:03;;;;;;;100.38;8.45;;;;;;;8.04;100.00;100553.22;5069599;28;20448;-49
2023/03/26 01:29:28;;;;;;;98.50;9.63;;;;;;;8.01;100.00;100548.19;5080820;28;20479;-50
2023/03/26 01:32:01;;;;;;;102.80;7.38;;;;;;;7.96;100.00;100539.00;5081483;28;20062;-48
2023/03/26 01:34:42;;;;;;;100.10;7.88;;;;;;;7.90;100.00;100538.69;5064235;28;20029;-49
2023/03/26 01:37:40;;;;;;;70.82;7.60;;;;;;;7.87;100.00;100527.47;5068806;28;20035;-47
2023/03/26 01:40:22;;;;;;;101.95;9.57;;;;;;;7.77;100.00;100516.13;5043418;28;20052;-51
2023/03/26 01:42:57;;;;;;;120.88;11.48;;;;;;;7.73;100.00;100522.81;5067309;28;20032;-45
2023/03/26 01:45:27;;;;;;;112.13;8.52;;;;;;;7.68;100.00;100520.66;5065876;28;20102;-48
2023/03/26 01:47:53;;;;;;;103.25;8.77;;;;;;;7.61;100.00;100523.19;5077638;28;20049;-49
2023/03/26 01:50:19;;;;;;;123.13;9.75;;;;;;;7.58;100.00;100525.34;5066616;28;20095;-49
2023/03/26 01:52:44;;;;;;;99.88;10.05;;;;;;;7.59;100.00;100521.69;5067717;28;20043;-48
2023/03/26 01:55:13;;;;;;;113.45;9.02;;;;;;;7.53;100.00;100520.53;5067921;28;20118;-50
2023/03/26 01:58:00;;;;;;;130.70;10.45;;;;;;;7.52;100.00;100521.53;5066462;28;20439;-48
2023/03/26 02:00:30;;;;;;;156.52;13.00;;;;;;;7.50;100.00;100514.66;5072989;28;20028;-49
2023/03/26 02:03:17;;;;;;;137.90;10.20;;;;;;;7.49;100.00;100521.88;5065062;28;20070;-48
2023/03/26 02:06:06;;;;;;;142.23;11.05;;;;;;;7.51;100.00;100527.91;5088193;28;20067;-47
2023/03/26 02:08:37;;;;;;;144.27;10.95;;;;;;;7.51;100.00;100524.38;5074795;28;20028;-49
2023/03/26 02:11:09;;;;;;;119.07;8.50;;;;;;;7.49;100.00;100519.19;5068942;28;20097;-50
2023/03/26 02:13:35;;;;;;;124.95;10.73;;;;;;;7.46;100.00;100509.66;5067839;28;20021;-46
2023/03/26 02:16:02;;;;;;;132.15;10.95;;;;;;;7.46;100.00;100520.38;5070818;28;20487;-48
2023/03/26 02:18:40;;;;;;;141.95;12.38;;;;;;;7.45;100.00;100520.53;5072453;28;20440;-49
2023/03/26 02:21:08;;;;;;;;;;;;;;;7.46;100.00;100516.84;5072557;28;20032;-48
2023/03/26 02:23:34;;;;;;;130.02;11.10;;;;;;;7.46;100.00;100516.84;5073179;28;19909;-49
2023/03/26 02:26:04;;;;;;;147.43;12.10;;;;;;;7.50;100.00;100517.34;5070187;28;20032;-47
2023/03/26 02:28:29;;;;;;;141.40;13.13;;;;;;;7.51;100.00;100511.81;5070644;28;20086;-49
2023/03/26 02:31:00;;;;;;;126.30;12.48;;;;;;;7.57;100.00;100511.13;5071331;28;20025;-47
2023/03/26 02:33:27;;;;;;;157.85;16.02;;;;;;;7.60;100.00;100509.97;5074825;28;20032;-48
2023/03/26 02:35:53;;;;;;;161.32;13.98;;;;;;;7.61;100.00;100507.13;5070066;28;20032;-48
2023/03/26 02:38:19;;;;;;;146.55;13.75;;;;;;;7.64;100.00;100506.78;5074121;28;20111;-47
2023/03/26 02:40:45;;;;;;;141.52;13.70;;;;;;;7.67;100.00;100495.72;5078926;28;20024;-51
2023/03/26 02:43:10;;;;;;;144.60;12.48;;;;;;;7.67;100.00;100495.72;5074195;28;20105;-51
2023/03/26 02:45:35;;;;;;;158.50;13.95;;;;;;;7.70;100.00;100499.91;5070110;28;20029;-47
2023/03/26 02:48:01;;;;;;;152.63;13.60;;;;;;;7.77;100.00;100497.38;5069912;28;20037;-47
2023/03/26 02:50:26;;;;;;;161.93;14.70;;;;;;;7.81;100.00;100490.66;5070897;28;20415;-47
2023/03/26 02:52:52;;;;;;;144.75;13.77;;;;;;;7.87;100.00;100477.41;5070335;28;20107;-50
2023/03/26 02:55:17;;;;;;;161.13;11.43;;;;;;;7.92;100.00;100482.22;5070913;28;20039;-46
2023/03/26 02:57:43;;;;;;;134.15;12.93;;;;;;;7.93;100.00;100485.78;5069287;28;20372;-47
2023/03/26 03:00:12;;;;;;;138.45;12.40;;;;;;;7.94;100.00;100479.41;5071683;28;20064;-46
2023/03/26 03:02:37;;;;;;;125.57;13.00;;;;;;;7.98;100.00;100486.91;5075273;28;20055;-50
2023/03/26 03:05:04;;;;;;;141.18;12.30;;;;;;;7.96;100.00;100483.56;5074395;28;20024;-49
2023/03/26 03:07:30;;;;;;;128.03;14.70;;;;;;;8.00;100.00;100478.69;5088266;28;20512;-48
2023/03/26 03:10:01;;;;;;;132.63;12.80;;;;;;;8.04;100.00;100475.50;5063755;28;20050;-48
2023/03/26 03:12:26;;;;;;;139.77;12.25;;;;;;;8.10;100.00;100469.44;5072880;28;20115;-50
2023/03/26 03:14:52;;;;;;;125.15;12.75;;;;;;;8.10;100.00;100473.97;5071064;28;20144;-47
2023/03/26 03:17:19;;;;;;;156.07;13.50;;;;;;;8.08;100.00;100468.78;5069370;28;20056;-49
2023/03/26 03:19:45;;;;;;;141.30;12.98;;;;;;;8.11;100.00;100468.44;5069328;28;20508;-51
2023/03/26 03:22:10;;;;;;;132.35;14.18;;;;;;;8.11;100.00;100452.34;5086433;28;20078;-48
2023/03/26 03:24:35;;;;;;;146.90;12.05;;;;;;;8.09;100.00;100451.69;5070461;28;20482;-47
2023/03/26 03:27:01;;;;;;;149.70;14.55;;;;;;;8.13;100.00;100446.78;5069676;28;20029;-46
2023/03/26 03:29:27;;;;;;;136.10;13.55;;;;;;;8.07;100.00;100453.69;5068015;28;20063;-49
2023/03/26 03:31:52;;;;;;;123.85;12.93;;;;;;;8.09;100.00;100443.66;5078287;28;20059;-50
2023/03/26 03:34:17;;;;;;;128.85;11.27;;;;;;;8.10;100.00;100439.94;5084510;28;20422;-48
2023/03/26 03:36:47;;;;;;;106.25;10.55;;;;;;;8.18;100.00;100444.44;5090534;28;20034;-50
2023/03/26 03:39:14;;;;;;;122.70;12.18;;;;;;;8.17;100.00;100431.22;5073706;28;20604;-51
2023/03/26 03:41:39;;;;;;;124.22;10.98;;;;;;;8.16;100.00;100432.22;5069271;28;20028;-48
2023/03/26 03:44:05;;;;;;;138.63;12.25;;;;;;;8.07;100.00;100424.22;5069387;28;20035;-48
2023/03/26 03:46:30;;;;;;;125.00;13.23;;;;;;;7.98;100.00;100433.31;5071821;28;20403;-48
2023/03/26 03:48:56;;;;;;;133.15;12.38;;;;;;;8.01;100.00;100421.41;5068763;28;20098;-49
2023/03/26 03:51:22;;;;;;;103.95;10.98;;;;;;;8.06;100.00;100417.19;5072038;28;20024;-48
2023/03/26 03:53:48;;;;;;;87.55;10.13;;;;;;;8.09;100.00;100408.78;5072249;28;20371;-49
2023/03/26 03:56:16;;;;;;;102.55;9.00;;;;;;;8.09;100.00;100402.59;5069478;28;20036;-48
2023/03/26 03:58:44;;;;;;;;;;;;;;;8.01;100.00;100395.44;5069565;28;20481;-48
2023/03/26 04:01:12;;;;;;;98.75;9.77;;;;;;;7.90;100.00;100390.50;5071563;28;19912;-49
2023/03/26 04:03:38;;;;;;;84.70;11.57;;;;;;;7.87;100.00;100388.13;5070086;28;20056;-48
2023/03/26 04:06:06;;;;;;;88.53;9.95;;;;;;;7.87;100.00;100385.47;5085158;28;20329;-49
2023/03/26 04:08:33;;;;;;;89.10;9.55;;;;;;;7.79;100.00;100374.78;5079510;28;20047;-46
2023/03/26 04:10:59;;;;;;;102.50;8.93;;;;;;;7.84;100.00;100380.47;5071482;28;20343;-48
2023/03/26 04:13:24;;;;;;;89.60;9.18;;;;;;;7.82;100.00;100374.44;5078758;28;20028;-48
2023/03/26 04:15:50;;;;;;;84.07;9.27;;;;;;;7.83;100.00;100376.13;5070484;28;20017;-47
2023/03/26 04:18:15;;;;;;;109.95;11.82;;;;;;;7.84;100.00;100375.09;5070306;28;20353;-49
2023/03/26 04:20:45;;;;;;;77.15;9.35;;;;;;;7.94;100.00;100373.03;5070555;28;20050;-50
2023/03/26 04:23:17;;;;;;;120.72;11.57;;;;;;;7.91;100.00;100360.00;5050742;28;20051;-49
2023/03/26 04:25:47;;;;;;;104.85;13.27;;;;;;;7.91;100.00;100352.78;5062053;28;20463;-48
2023/03/26 04:28:19;;;;;;;108.88;10.70;;;;;;;7.97;100.00;100345.88;5067672;28;20047;-49
2023/03/26 04:30:44;;;;;;;84.13;9.75;;;;;;;8.02;100.00;100343.50;5066977;28;20457;-49
2023/03/26 04:33:14;;;;;;;84.00;10.25;;;;;;;7.98;100.00;100344.03;5068486;28;20105;-48
2023/03/26 04:35:40;;;;;;;114.35;13.38;;;;;;;7.95;100.00;100347.06;5074751;28;20043;-47
2023/03/26 04:38:06;;;;;;;113.78;11.10;;;;;;;7.89;100.00;100343.25;5063060;28;20401;-49
2023/03/26 04:40:33;;;;;;;106.53;12.07;;;;;;;7.87;100.00;100331.88;5068154;28;20035;-48
2023/03/26 04:43:03;;;;;;;105.07;11.85;;;;;;;7.89;100.00;100328.00;5068828;28;20024;-47
2023/03/26 04:45:30;;;;;;;87.38;11.00;;;;;;;7.94;100.00;100319.44;5070249;28;20025;-49
2023/03/26 04:47:56;;;;;;;101.70;13.18;;;;;;;8.01;100.00;100320.41;5067239;28;20393;-50
2023/03/26 04:50:22;;;;;;;93.13;11.30;;;;;;;8.13;100.00;100318.13;5068035;28;20020;-48
2023/03/26 04:52:48;;;;;;;110.22;14.02;;;;;;;8.19;100.00;100311.22;5069112;28;20439;-48
2023/03/26 04:55:47;;;;;;;117.22;12.65;;;;;;;8.20;100.00;100303.00;5069110;28;20024;-48
2023/03/26 04:58:13;;;;;;;84.75;11.50;;;;;;;8.19;100.00;100297.81;5059546;28;20058;-50
2023/03/26 05:00:39;;;;;;;110.65;13.73;;;;;;;8.21;100.00;100291.25;5067422;28;20037;-47
2023/03/26 05:03:08;;;;;;;108.65;13.65;;;;;;;8.20;100.00;100286.09;5069534;28;20039;-48
2023/03/26 05:05:33;;;;;;;130.60;13.82;;;;;;;8.22;100.00;100281.41;5086916;28;20024;-49
2023/03/26 05:07:59;;;;;;;112.22;13.50;;;;;;;8.26;100.00;100285.38;5070110;28;20116;-48
2023/03/26 05:10:24;;;;;;;105.13;13.63;;;;;;;8.23;100.00;100280.38;5069548;28;20044;-49
2023/03/26 05:12:50;;;;;;;90.72;12.75;;;;;;;8.24;100.00;100279.34;5058394;28;20029;-50
2023/03/26 05:15:15;;;;;;;102.78;12.85;;;;;;;8.25;100.00;100275.66;5047655;28;20063;-50
2023/03/26 05:17:41;;;;;;;96.90;14.50;;;;;;;8.30;100.00;100276.78;5060363;28;20047;-49
2023/03/26 05:20:15;;;;;;;101.78;12.68;;;;;;;8.27;100.00;100271.78;5063305;28;20032;-50
2023/03/26 05:22:41;;;;;;;108.88;12.50;;;;;;;8.31;100.00;100267.72;5065607;28;20119;-50
2023/03/26 05:25:07;;;;;;;93.75;11.32;;;;;;;8.30;100.00;100252.66;5066507;28;20516;-50
2023/03/26 05:27:33;;;;;;;89.05;12.50;;;;;;;8.28;100.00;100257.38;5066402;28;20025;-51
2023/03/26 05:30:02;;;;;;;87.22;13.23;;;;;;;8.23;100.00;100254.41;5066950;28;20334;-48
2023/03/26 05:32:27;;;;;;;86.97;13.35;;;;;;;8.22;100.00;100251.91;5064645;28;20028;-48
2023/03/26 05:34:52;;;;;;;90.07;11.93;;;;;;;8.22;100.00;100247.38;5057910;28;20027;-48
2023/03/26 05:37:19;;;;;;;76.20;12.40;;;;;;;8.20;100.00;100245.91;5058961;28;20381;-48
2023/03/26 05:39:44;;;;;;;106.43;14.38;;;;;;;8.22;100.00;100242.00;5046854;28;20052;-50
2023/03/26 05:42:10;;;;;;;116.60;13.80;;;;;;;8.23;100.00;100245.53;5058941;28;20091;-48
2023/03/26 05:44:35;;;;;;;112.00;13.90;;;;;;;8.22;100.00;100241.19;5050041;28;20036;-50
2023/03/26 05:47:01;;;;;;;94.15;13.57;;;;;;;8.11;100.00;100232.56;5065489;28;20146;-50
2023/03/26 05:49:26;;;;;;;106.80;15.32;;;;;;;8.12;100.00;100242.25;5070329;28;20511;-49
2023/03/26 05:51:51;;;;;;;110.25;15.75;;;;;;;8.08;100.00;100238.28;5083725;28;20059;-49
2023/03/26 05:54:17;;;;;;;103.22;15.52;;;;;;;8.10;100.00;100243.47;5076608;28;20047;-46
2023/03/26 05:56:42;;;;;;;118.47;16.38;;;;;;;8.05;100.00;100248.53;5069405;28;20028;-48
2023/03/26 05:59:07;;;;;;;95.80;13.73;;;;;;;8.07;100.00;100244.66;5071202;28;20454;-50
2023/03/26 06:01:33;;;;;;;89.15;14.85;;;;;;;8.10;100.00;100249.63;5071917;28;20060;-47
2023/03/26 06:03:58;;;;;;;107.82;14.45;;;;;;;8.06;100.00;100243.00;5076932;28;20040;-47
2023/03/26 06:06:24;;;;;;;104.20;14.75;;;;;;;8.10;100.00;100246.13;5083458;28;20033;-47
2023/03/26 06:08:51;;;;;;;110.32;14.80;;;;;;;8.16;100.00;100242.72;5071772;28;20056;-49
2023/03/26 06:11:18;;;;;;;103.75;15.95;;;;;;;8.12;100.00;100233.41;5071507;28;20058;-49
2023/03/26 06:13:44;;;;;;;92.03;14.05;;;;;;;8.12;100.00;100231.53;5069123;28;20028;-48
2023/03/26 06:16:10;;;;;;;121.50;16.02;;;;;;;8.13;100.00;100227.84;5069627;28;20085;-49
2023/03/26 06:18:36;;;;;;;92.95;15.10;;;;;;;8.10;100.00;100228.19;5069390;28;20047;-49
2023/03/26 06:21:03;;;;;;;80.53;13.80;;;;;;;8.12;100.00;100226.19;5067200;28;20029;-49
2023/03/26 06:23:28;;;;;;;124.28;14.65;;;;;;;8.12;100.00;100223.50;5085346;28;20410;-48
2023/03/26 06:25:54;;;;;;;106.63;14.43;;;;;;;8.14;100.00;100231.38;5081790;28;20047;-47
2023/03/26 06:28:20;;;;;;;96.18;15.05;;;;;;;8.13;100.00;100232.38;5070690;28;20444;-48
2023/03/26 06:30:45;;;;;;;90.05;12.57;;;;;;;8.07;100.00;100223.22;5070296;28;20125;-49
2023/03/26 06:33:11;;;;;;;84.10;13.10;;;;;;;8.17;100.00;100224.81;5052726;28;20039;-48
2023/03/26 06:35:36;;;;;;;91.45;11.57;;;;;;;8.21;100.00;100234.16;5070461;28;20495;-50
2023/03/26 06:38:01;;;;;;;93.25;11.13;;;;;;;8.19;100.00;100230.81;5069610;28;20571;-48
2023/03/26 06:40:27;;;;;;;89.32;13.20;;;;;;;8.22;100.00;100228.63;5070004;28;20032;-48
2023/03/26 06:42:54;;;;;;;94.90;11.95;;;;;;;8.21;100.00;100228.78;5070507;28;20020;-49
2023/03/26 06:45:20;;;;;;;90.03;10.45;;;;;;;8.26;100.00;100224.53;5068839;28;20028;-47
2023/03/26 06:47:46;;;;;;;93.20;11.85;;;;;;;8.25;100.00;100224.75;5067071;28;20052;-49
2023/03/26 06:50:11;;;;;;;86.57;12.13;;;;;;;8.22;100.00;100227.78;5068471;28;20038;-49
2023/03/26 06:52:37;;;;;;;77.13;10.38;;;;;;;8.22;100.00;100220.56;5069670;28;20029;-49
2023/03/26 06:55:05;;;;;;;88.97;12.70;;;;;;;8.14;100.00;100229.53;5069671;28;20391;-50
2023/03/26 06:57:30;;;;;;;;;;;;;;;8.06;100.00;100226.09;5069520;28;20084;-49
2023/03/26 06:59:55;;;;;;;92.50;13.38;;;;;;;8.05;100.00;100222.56;5065601;28;19988;-49
2023/03/26 07:02:21;;;;;;;104.60;14.52;;;;;;;7.94;100.00;100214.94;5089637;28;20487;-49
2023/03/26 07:04:46;;;;;;;96.13;14.48;;;;;;;7.95;100.00;100221.97;5069599;28;20036;-48
2023/03/26 07:07:13;;;;;;;94.15;14.43;;;;;;;8.07;100.00;100220.53;5068697;28;20078;-49
2023/03/26 07:09:38;;;;;;;103.65;15.98;;;;;;;8.09;100.00;100229.22;5067909;28;20029;-48
2023/03/26 07:12:04;;;;;;;104.85;15.70;;;;;;;8.14;100.00;100223.34;5069245;28;20054;-47
2023/03/26 07:14:31;;;;;;;92.75;16.30;;;;;;;8.13;100.00;100222.47;5068160;28;20047;-49
2023/03/26 07:16:57;;;;;;;98.75;14.95;;;;;;;8.16;100.00;100225.81;5067576;28;20444;-49
2023/03/26 07:19:23;;;;;;;95.45;15.25;;;;;;;8.09;100.00;100221.19;5069534;28;20048;-51
2023/03/26 07:21:49;;;;;;;91.40;16.27;;;;;;;8.06;100.00;100213.50;5076797;28;20173;-49
2023/03/26 07:24:15;;;;;;;86.07;16.48;;;;;;;8.07;100.00;100212.50;5087111;28;20036;-48
2023/03/26 07:26:46;;;;;;;98.28;16.33;;;;;;;8.03;100.00;100218.38;5065650;28;20033;-47
2023/03/26 07:29:19;;;;;;;88.63;16.38;;;;;;;8.01;100.00;100218.59;5069449;28;20742;-51
2023/03/26 07:31:50;;;;;;;98.43;19.98;;;;;;;8.03;100.00;100216.56;5069686;28;20033;-49
2023/03/26 07:35:14;;;;;;;96.32;18.63;;;;;;;8.18;100.00;100218.44;5067877;28;20097;-51
2023/03/26 07:38:04;;;;;;;113.13;20.35;;;;;;;8.11;100.00;100213.81;5024528;28;20040;-49
2023/03/26 07:40:51;;;;;;;99.70;19.58;;;;;;;8.18;100.00;100223.78;5009968;28;20060;-47
2023/03/26 07:43:25;;;;;;;100.22;20.42;;;;;;;8.22;100.00;100219.75;5063946;28;20040;-47
2023/03/26 07:45:52;;;;;;;88.47;19.02;;;;;;;8.31;100.00;100216.78;5068216;28;20028;-51
2023/03/26 07:48:26;;;;;;;98.72;19.88;;;;;;;8.29;100.00;100207.25;5068471;28;20522;-47
2023/03/26 07:50:53;;;;;;;102.03;20.95;;;;;;;8.35;100.00;100203.88;5068539;28;20052;-48
2023/03/26 07:53:19;;;;;;;88.50;18.23;;;;;;;8.36;100.00;100209.03;5087363;28;20027;-50
2023/03/26 07:56:00;;;;;;;92.55;18.42;;;;;;;8.40;100.00;100206.00;5083904;28;20487;-48
2023/03/26 07:58:25;;;;;;;87.20;16.55;;;;;;;8.39;100.00;100199.81;5046581;28;20040;-51
2023/03/26 08:00:56;;;;;;;95.57;16.15;;;;;;;8.43;100.00;100197.63;5048608;28;20033;-50
2023/03/26 08:03:30;;;;;;;97.93;16.15;;;;;;;8.39;100.00;100198.97;5066804;28;20510;-50
2023/03/26 08:06:02;;;;;;;83.97;16.48;;;;;;;8.36;100.00;100194.78;5068957;28;20333;-50
2023/03/26 08:08:44;;;;;;;104.45;19.15;;;;;;;8.33;100.00;100195.16;5068424;28;20065;-50
2023/03/26 08:11:19;;;;;;;105.45;19.10;;;;;;;8.37;100.00;100191.09;5064073;28;20029;-48
2023/03/26 08:14:20;;;;;;;105.35;22.65;;;;;;;8.34;100.00;100197.66;5065112;28;20687;-48
2023/03/26 08:17:09;;;;;;;91.55;20.70;;;;;;;8.29;100.00;100193.84;5051287;28;20079;-48
2023/03/26 08:20:01;;;;;;;97.75;21.90;;;;;;;8.26;100.00;100204.94;5072698;28;20505;-46
2023/03/26 08:22:33;;;;;;;100.05;20.73;;;;;;;8.21;100.00;100202.81;5085801;28;20028;-45
2023/03/26 08:25:23;;;;;;;93.00;18.90;;;;;;;8.20;100.00;100214.56;5066980;28;20025;-47
2023/03/26 08:28:26;;;;;;;96.28;20.95;;;;;;;8.17;100.00;100211.41;5050321;28;20165;-47
2023/03/26 08:30:53;;;;;;;92.68;18.98;;;;;;;8.11;100.00;100213.81;5063714;28;20029;-47
2023/03/26 08:33:20;;;;;;;96.40;19.20;;;;;;;8.07;100.00;100215.16;5066608;28;20561;-48
2023/03/26 08:35:46;;;;;;;105.63;18.20;;;;;;;8.09;100.00;100212.31;5065136;28;20047;-48
2023/03/26 08:38:14;;;;;;;90.20;20.00;;;;;;;8.07;100.00;100220.53;5060901;28;20086;-49
2023/03/26 08:41:01;;;;;;;79.53;18.73;;;;;;;8.06;100.00;100226.91;5066248;28;20440;-48
2023/03/26 08:43:32;;;;;;;108.75;20.17;;;;;;;8.10;100.00;100225.53;5067714;28;20046;-49
2023/03/26 08:46:12;;;;;;;107.03;22.67;;;;;;;8.13;100.00;100224.31;5067580;28;20037;-49
2023/03/26 08:49:02;;;;;;;108.03;21.90;;;;;;;8.08;100.00;100224.91;5065308;28;20136;-49
2023/03/26 08:51:27;;;;;;;102.90;20.23;;;;;;;8.06;100.00;100229.59;5052048;28;20468;-49
2023/03/26 08:54:15;;;;;;;90.18;18.80;;;;;;;8.19;100.00;100226.31;5067657;28;20688;-47
2023/03/26 08:56:50;;;;;;;91.93;19.50;;;;;;;8.17;100.00;100228.31;5070462;28;20024;-51
2023/03/26 08:59:21;;;;;;;85.88;19.42;;;;;;;8.13;100.00;100233.19;5063312;28;20817;-49
2023/03/26 09:01:54;;;;;;;101.00;21.98;;;;;;;8.17;100.00;100236.38;5070582;28;20100;-51
2023/03/26 09:04:39;;;;;;;75.50;16.70;;;;;;;8.17;100.00;100238.22;5072452;28;20043;-51
2023/03/26 09:07:41;;;;;;;63.88;14.57;;;;;;;8.14;100.00;100240.25;5075239;28;20395;-50
2023/03/26 09:10:15;;;;;;;78.28;16.52;;;;;;;8.17;100.00;100238.22;5065219;28;20032;-48
2023/03/26 09:13:11;;;;;;;76.07;18.42;;;;;;;8.16;100.00;100240.03;5065327;28;20033;-54
2023/03/26 09:16:07;;;;;;;89.13;18.88;;;;;;;8.20;100.00;100246.72;5069411;28;20507;-52
2023/03/26 09:18:45;;;;;;;68.78;18.52;;;;;;;8.16;100.00;100247.25;5067841;28;20028;-52
2023/03/26 09:21:56;;;;;;;64.00;18.25;;;;;;;8.05;100.00;100245.84;5069152;28;20020;-50
2023/03/26 09:24:43;;;;;;;61.55;19.50;;;;;;;8.00;100.00;100256.25;5044482;28;20047;-51
2023/03/26 09:27:33;;;;;;;59.95;19.60;;;;;;;7.93;100.00;100242.75;5073999;28;20039;-50
2023/03/26 09:30:20;;;;;;;58.63;19.63;;;;;;;7.98;100.00;100256.47;5070067;28;20094;-51
2023/03/26 09:33:08;;;;;;;66.32;23.02;;;;;;;7.98;100.00;100260.97;5071652;28;20048;-48
2023/03/26 09:35:54;;;;;;;72.88;21.55;;;;;;;7.94;100.00;100260.50;5073919;28;20056;-48
2023/03/26 09:38:22;;;;;;;76.15;22.30;;;;;;;7.90;100.00;100268.06;5090706;28;20035;-47
2023/03/26 09:41:07;;;;;;;70.97;20.75;;;;;;;7.85;100.00;100274.97;5091515;28;20036;-49
2023/03/26 09:44:06;;;;;;;97.00;24.60;;;;;;;7.77;100.00;100269.69;5064747;28;20033;-49
2023/03/26 09:46:59;;;;;;;88.53;23.95;;;;;;;7.78;100.00;100274.00;5053371;28;20029;-50
2023/03/26 09:49:42;;;;;;;95.63;23.55;;;;;;;7.77;100.00;100273.19;5093421;28;20502;-51
2023/03/26 09:52:35;;;;;;;94.90;25.08;;;;;;;7.81;100.00;100281.69;5079540;28;20082;-50
2023/03/26 09:55:19;;;;;;;79.75;20.27;;;;;;;7.72;100.00;100278.25;5072339;28;20025;-50
2023/03/26 09:57:52;;;;;;;81.95;21.13;;;;;;;7.69;100.00;100279.44;5072771;28;20020;-49
2023/03/26 10:00:42;;;;;;;79.85;20.60;;;;;;;7.74;100.00;100278.03;5068735;28;20052;-47
2023/03/26 10:03:17;;;;;;;55.95;15.93;;;;;;;7.74;100.00;100276.22;5060720;28;20483;-47
2023/03/26 10:05:48;;;;;;;53.25;14.60;;;;;;;7.72;100.00;100277.41;5079324;28;20111;-48
2023/03/26 10:08:46;;;;;;;57.60;15.23;;;;;;;7.76;100.00;100278.72;5077899;28;20601;-47
2023/03/26 10:11:36;;;;;;;62.10;12.25;;;;;;;7.78;100.00;100287.41;5055372;28;20580;-49
2023/03/26 10:14:14;;;;;;;53.85;10.60;;;;;;;7.74;100.00;100292.31;5073490;28;20046;-49
2023/03/26 10:17:03;;;;;;;43.28;10.50;;;;;;;7.73;100.00;100285.25;5091921;28;20035;-48
2023/03/26 10:19:41;;;;;;;54.38;11.05;;;;;;;7.77;100.00;100291.94;5076772;28;20111;-48
2023/03/26 10:22:25;;;;;;;53.45;9.48;;;;;;;7.83;100.00;100285.88;5070219;28;20136;-49
2023/03/26 10:25:10;;;;;;;44.08;8.50;;;;;;;7.79;100.00;100279.19;5089100;28;20055;-46
2023/03/26 10:28:04;;;;;;;42.58;9.48;;;;;;;7.88;100.00;100290.69;5093218;28;20034;-47
2023/03/26 10:30:45;;;;;;;38.60;9.02;;;;;;;7.95;100.00;100293.47;5070879;28;20028;-48
2023/03/26 10:33:14;;;;;;;44.63;9.32;;;;;;;8.06;100.00;100290.41;5072650;28;20102;-46
2023/03/26 10:35:55;;;;;;;44.85;8.05;;;;;;;8.03;100.00;100296.97;5091535;28;20020;-47
2023/03/26 10:38:50;;;;;;;43.92;8.52;;;;;;;8.00;100.00;100291.09;5087772;28;20128;-47
2023/03/26 10:41:20;;;;;;;41.22;8.02;;;;;;;8.01;100.00;100295.47;5052590;28;20028;-46
2023/03/26 10:43:57;;;;;;;53.53;7.60;;;;;;;8.11;100.00;100293.38;5067481;28;20049;-47
2023/03/26 10:46:34;;;;;;;43.38;7.32;;;;;;;8.14;100.00;100304.56;5076027;28;20480;-49
2023/03/26 10:49:15;;;;;;;43.65;7.88;;;;;;;8.24;100.00;100300.78;5068580;28;20059;-47
2023/03/26 10:51:52;;;;;;;50.45;8.07;;;;;;;8.17;100.00;100298.00;5070385;28;20536;-47
2023/03/26 10:54:23;;;;;;;44.67;7.72;;;;;;;8.13;100.00;100308.25;5075655;28;20232;-47
2023/03/26 10:56:50;;;;;;;54.92;7.93;;;;;;;8.10;100.00;100302.41;5076196;28;20372;-48
2023/03/26 10:59:16;;;;;;;46.58;6.97;;;;;;;8.03;100.00;100296.97;5090273;28;20021;-48
2023/03/26 11:01:57;;;;;;;67.63;8.65;;;;;;;8.04;100.00;100303.16;5088750;28;20028;-47
2023/03/26 11:04:47;;;;;;;57.97;7.43;;;;;;;8.06;100.00;100306.47;5067259;28;20097;-48
2023/03/26 11:07:21;;;;;;;50.53;7.90;;;;;;;8.10;100.00;100310.47;5068788;28;20495;-46
2023/03/26 11:09:49;;;;;;;53.60;6.03;;;;;;;8.16;100.00;100314.25;5051594;28;20494;-47
2023/03/26 11:12:33;;;;;;;51.38;7.28;;;;;;;8.13;100.00;100318.13;5074039;28;20077;-47
2023/03/26 11:15:05;;;;;;;25.77;6.10;;;;;;;8.14;100.00;100306.41;5071650;28;20032;-49
2023/03/26 11:17:49;;;;;;;51.22;8.10;;;;;;;8.19;100.00;100301.34;5078404;28;20032;-47
2023/03/26 11:20:39;;;;;;;48.38;6.15;;;;;;;8.27;100.00;100311.19;5067372;28;20120;-49
2023/03/26 11:23:34;;;;;;;61.80;6.82;;;;;;;8.32;100.00;100306.09;5078676;28;20079;-47
2023/03/26 11:26:09;;;;;;;54.65;6.05;;;;;;;8.37;100.00;100306.38;5073547;28;20476;-48
2023/03/26 11:28:53;;;;;;;51.92;7.05;;;;;;;8.35;100.00;100311.94;5069111;28;20421;-48
2023/03/26 11:31:25;;;;;;;40.33;6.90;;;;;;;8.36;100.00;100318.13;5076201;28;20037;-50